Denver, CO (80212)

1:24 AM MDT on September 02, 2015 (GMT -0600)
West Highlands | | Change Station
CLOSE
Current Station
Personal Weather Station
Location: Denver, CO
Elevation: 5482 ft
Nearby Weather Stations

Elev 5482 ft 39.76 °N, 105.05 °W | Updated 24 seconds ago

Partly Cloudy
Partly Cloudy
71.4 °F
Feels Like 77 °F
N
3.2
Wind Variable Wind from SSW

Today
High -- | Low -- °F
--% Chance of Precip.
Yesterday
High -- | Low -- °F
Precip. -- in
6:28 AM 7:30 PM
Waning Gibbous, 82% visible
Pressure 29.91 in
Visibility 10.0 miles
Clouds Mostly Cloudy 11000 ft
Mostly Cloudy 25000 ft
Heat Index 77 °F
Dew Point 42 °F
Humidity 35%
Rainfall 0.00 in
Snow Depth Not available.
UV 0 out of 12
Pollen 9.90 out of 12
Air Quality Not available.
Flu Activity Not available.
METAR KAPA 020653Z 24016G25KT 10SM BKN110 BKN250 19/08 A3014 RMK AO2 SLP126 T01940078 403060128
Pressure 29.91 in
Visibility 10.0 miles
Clouds Mostly Cloudy 11000 ft
Mostly Cloudy 25000 ft
Heat Index 77 °F
Dew Point 42 °F
Humidity 35%
Rainfall 0.00 in
Snow Depth Not available.
UV 0 out of 12
Pollen 9.90 out of 12
Air Quality Not available.
Flu Activity Not available.
METAR KAPA 020653Z 24016G25KT 10SM BKN110 BKN250 19/08 A3014 RMK AO2 SLP126 T01940078 403060128

10-Day Weather Forecast

×

Almanac

Astronomy

Sep. 02, 2015 Rise Set
Actual Time
Civil Twilight
Nautical Twilight
Astronomical Twilight
Moon
Length of Visible Light
Length of Day
Tomorrow will be .
, % of the Moon is Illuminated

Today's Extremes

State Highs State Lows

Community

WunderPhotos

Upload Photos

1,851,721 photos uploaded!

WunderBlogs® & News

Nearby

Air Quality

  Air Quality AQ Index Pollutant
Not available.

Snow Depth

Station Depth Elevation

Earthquake Activity

City Distance Mag. Time & Date
Minimum magnitude displayed is 2.5.

Coastal Water Temperatures

Place Temperature

Stations

Nearby Weather Stations

Station Location Temp. Windchill Dew Point Humidity Wind Precip. Elev Updated Type